Time;durP1;ratioP1;P1;durP2;ratioP2;P2;SDS_P1;SDS_P2;PMS_P1;PMS_P2;Temp;Humidity;BMP_temperature;BMP_pressure;BME280_temperature;BME280_humidity;BME280_pressure;Samples;Min_cycle;Max_cycle;Signal;HPM_P1;HPM_P2
2023/08/10 00:02:17;;;;;;;3.30;1.27;;;;;;;;;;4913226;29;20488;-73
2023/08/10 00:04:44;;;;;;;2.20;1.00;;;;;;;;;;4917360;29;20473;-73
2023/08/10 00:07:11;;;;;;;4.33;1.50;;;;;;;;;;4913365;29;20465;-73
2023/08/10 00:09:39;;;;;;;1.80;1.00;;;;;;;;;;4916270;29;20461;-74
2023/08/10 00:12:06;;;;;;;2.37;1.20;;;;;;;;;;4916109;29;20476;-74
2023/08/10 00:14:33;;;;;;;1.83;1.17;;;;;;;;;;4915259;29;20441;-73
2023/08/10 00:17:00;;;;;;;2.20;1.00;;;;;;;;;;4914662;29;20508;-74
2023/08/10 00:19:29;;;;;;;2.23;1.13;;;;;;;;;;4915351;29;20566;-73
2023/08/10 00:21:56;;;;;;;2.90;1.80;;;;;;;;;;4914823;29;20496;-74
2023/08/10 00:24:23;;;;;;;1.90;1.30;;;;;;;;;;4916441;29;20528;-73
2023/08/10 00:26:50;;;;;;;2.00;1.00;;;;;;;;;;4915628;29;20480;-74
2023/08/10 00:29:17;;;;;;;2.10;1.10;;;;;;;;;;4916411;29;20563;-74
2023/08/10 00:31:45;;;;;;;2.40;1.17;;;;;;;;;;4914559;29;20477;-73
2023/08/10 00:34:12;;;;;;;2.10;1.00;;;;;;;;;;4914694;29;20551;-74
2023/08/10 00:36:41;;;;;;;2.30;1.00;;;;;;;;;;4916097;29;20469;-73
2023/08/10 00:39:08;;;;;;;2.47;1.27;;;;;;;;;;4915091;29;20501;-74
2023/08/10 00:41:36;;;;;;;2.63;1.43;;;;;;;;;;4918546;29;20511;-74
2023/08/10 00:44:03;;;;;;;7.17;1.40;;;;;;;;;;4915244;29;20551;-73
2023/08/10 00:46:31;;;;;;;2.10;1.03;;;;;;;;;;4915313;29;20460;-73
2023/08/10 00:48:58;;;;;;;2.17;1.30;;;;;;;;;;4914065;29;20468;-73
2023/08/10 00:51:25;;;;;;;2.50;1.00;;;;;;;;;;4913674;29;20567;-73
2023/08/10 00:53:54;;;;;;;2.47;1.43;;;;;;;;;;4917564;29;20445;-73
2023/08/10 00:56:21;;;;;;;2.50;1.10;;;;;;;;;;4915102;29;20471;-73
2023/08/10 00:58:49;;;;;;;2.53;1.27;;;;;;;;;;4915899;29;20471;-73
2023/08/10 01:01:16;;;;;;;6.30;1.07;;;;;;;;;;4913074;29;20464;-73
2023/08/10 01:03:43;;;;;;;2.13;1.07;;;;;;;;;;4916044;29;20464;-73
2023/08/10 01:06:13;;;;;;;2.03;1.20;;;;;;;;;;4915280;29;20461;-75
2023/08/10 01:08:43;;;;;;;2.23;1.30;;;;;;;;;;4915205;29;20783;-73
2023/08/10 01:11:16;;;;;;;2.20;1.50;;;;;;;;;;4912745;29;20520;-73
2023/08/10 01:13:48;;;;;;;2.27;1.30;;;;;;;;;;4916430;29;20448;-73
2023/08/10 01:16:16;;;;;;;2.07;0.90;;;;;;;;;;4914226;29;20461;-74
2023/08/10 01:18:44;;;;;;;2.10;1.20;;;;;;;;;;4913206;29;20488;-73
2023/08/10 01:21:15;;;;;;;2.37;1.23;;;;;;;;;;4914197;29;20441;-74
2023/08/10 01:23:44;;;;;;;2.37;1.20;;;;;;;;;;4914903;29;20787;-74
2023/08/10 01:26:12;;;;;;;2.37;1.40;;;;;;;;;;4913797;29;20466;-73
2023/08/10 01:28:41;;;;;;;2.73;1.37;;;;;;;;;;4914503;29;20460;-73
2023/08/10 01:31:08;;;;;;;2.63;1.23;;;;;;;;;;4911503;29;20552;-73
2023/08/10 01:33:35;;;;;;;2.87;1.30;;;;;;;;;;4915082;29;20467;-72
2023/08/10 01:36:02;;;;;;;2.90;1.63;;;;;;;;;;4912425;29;20546;-72
2023/08/10 01:38:29;;;;;;;3.30;1.60;;;;;;;;;;4913149;29;21006;-72
2023/08/10 01:40:56;;;;;;;2.17;1.30;;;;;;;;;;4915470;29;20463;-72
2023/08/10 01:43:25;;;;;;;5.20;1.60;;;;;;;;;;4915565;29;20495;-72
2023/08/10 01:45:55;;;;;;;2.70;1.40;;;;;;;;;;4913509;29;20978;-72
2023/08/10 01:48:25;;;;;;;2.57;1.33;;;;;;;;;;4913908;29;20464;-72
2023/08/10 01:50:54;;;;;;;2.30;1.17;;;;;;;;;;4914119;29;20467;-72
2023/08/10 01:56:25;;;;;;;2.60;1.30;;;;;;;;;;4912643;29;20457;-72
2023/08/10 01:58:53;;;;;;;4.80;2.30;;;;;;;;;;4914604;29;20957;-72
2023/08/10 02:01:20;;;;;;;2.47;1.40;;;;;;;;;;4911229;29;20536;-72
2023/08/10 02:03:48;;;;;;;2.20;1.40;;;;;;;;;;4912992;29;20464;-72
2023/08/10 02:06:15;;;;;;;2.13;0.90;;;;;;;;;;4974360;23;20692;-67
2023/08/10 02:08:42;;;;;;;2.50;1.50;;;;;;;;;;4950213;29;20451;-66
2023/08/10 02:11:09;;;;;;;2.97;1.20;;;;;;;;;;4948537;28;20482;-66
2023/08/10 02:13:36;;;;;;;3.30;1.50;;;;;;;;;;4931640;29;20452;-67
2023/08/10 02:16:05;;;;;;;3.07;1.20;;;;;;;;;;4933461;29;20460;-67
2023/08/10 02:18:32;;;;;;;2.20;1.10;;;;;;;;;;4931795;29;20463;-67
2023/08/10 02:20:59;;;;;;;2.50;1.20;;;;;;;;;;4931684;29;20459;-66
2023/08/10 02:23:26;;;;;;;2.67;1.20;;;;;;;;;;4933283;29;20472;-67
2023/08/10 02:25:53;;;;;;;2.00;1.00;;;;;;;;;;4928981;29;20812;-67
2023/08/10 02:28:20;;;;;;;3.33;2.10;;;;;;;;;;4934603;29;20490;-67
2023/08/10 02:30:47;;;;;;;2.50;1.10;;;;;;;;;;4932427;29;20463;-66
2023/08/10 02:33:16;;;;;;;3.37;1.23;;;;;;;;;;4930151;29;20479;-66
2023/08/10 02:35:43;;;;;;;2.20;1.20;;;;;;;;;;4932298;29;20854;-67
2023/08/10 02:38:10;;;;;;;2.83;1.30;;;;;;;;;;4930861;29;20448;-68
2023/08/10 02:40:37;;;;;;;2.37;1.20;;;;;;;;;;4930367;29;20958;-66
2023/08/10 02:43:04;;;;;;;2.50;1.60;;;;;;;;;;4932717;29;20491;-66
2023/08/10 02:45:31;;;;;;;3.63;1.90;;;;;;;;;;4933183;29;20468;-66
2023/08/10 02:47:59;;;;;;;2.63;1.50;;;;;;;;;;4934969;29;20455;-66
2023/08/10 02:50:27;;;;;;;2.37;1.17;;;;;;;;;;4930764;29;20448;-66
2023/08/10 02:52:54;;;;;;;3.33;1.60;;;;;;;;;;4932682;29;20479;-67
2023/08/10 02:55:21;;;;;;;2.50;1.60;;;;;;;;;;4933989;29;20468;-66
2023/08/10 02:57:49;;;;;;;2.50;1.47;;;;;;;;;;4934373;29;20515;-66
2023/08/10 03:00:17;;;;;;;2.00;1.07;;;;;;;;;;4934376;29;20478;-66
2023/08/10 03:02:44;;;;;;;2.43;1.30;;;;;;;;;;4934952;29;20851;-66
2023/08/10 03:05:12;;;;;;;2.40;1.10;;;;;;;;;;4936056;29;20574;-66
2023/08/10 03:07:40;;;;;;;2.10;1.30;;;;;;;;;;4935500;29;20495;-66
2023/08/10 03:10:08;;;;;;;2.57;1.50;;;;;;;;;;4932819;29;20531;-66
2023/08/10 03:12:35;;;;;;;3.00;1.70;;;;;;;;;;4937216;29;21178;-66
2023/08/10 03:15:04;;;;;;;2.40;1.40;;;;;;;;;;4936974;29;20444;-66
2023/08/10 03:17:31;;;;;;;3.00;1.80;;;;;;;;;;4932602;29;20827;-66
2023/08/10 03:19:58;;;;;;;2.90;2.30;;;;;;;;;;4932720;29;20560;-66
2023/08/10 03:22:27;;;;;;;2.60;1.53;;;;;;;;;;4933145;29;20479;-66
2023/08/10 03:24:55;;;;;;;3.33;1.50;;;;;;;;;;4934127;29;20471;-66
2023/08/10 03:27:22;;;;;;;2.57;1.50;;;;;;;;;;4932502;29;20463;-66
2023/08/10 03:29:49;;;;;;;2.57;1.23;;;;;;;;;;4935180;29;20464;-66
2023/08/10 03:32:19;;;;;;;3.07;1.90;;;;;;;;;;4934777;29;20544;-66
2023/08/10 03:34:48;;;;;;;2.47;1.20;;;;;;;;;;4934411;29;20600;-67
2023/08/10 03:37:15;;;;;;;3.70;2.17;;;;;;;;;;4934672;29;20507;-67
2023/08/10 03:39:42;;;;;;;3.87;1.70;;;;;;;;;;4935806;29;20460;-67
2023/08/10 03:42:11;;;;;;;3.27;1.20;;;;;;;;;;4935464;29;20486;-67
2023/08/10 03:44:38;;;;;;;4.17;1.87;;;;;;;;;;4935380;29;20447;-66
2023/08/10 03:47:05;;;;;;;2.20;1.30;;;;;;;;;;4937131;29;20452;-67
2023/08/10 03:49:32;;;;;;;2.07;1.17;;;;;;;;;;4935735;29;20467;-66
2023/08/10 03:51:59;;;;;;;2.30;1.33;;;;;;;;;;4936990;29;20480;-66
2023/08/10 03:54:27;;;;;;;3.53;1.77;;;;;;;;;;4933657;29;20444;-66
2023/08/10 03:56:54;;;;;;;3.10;1.40;;;;;;;;;;4933210;29;20440;-66
2023/08/10 03:59:23;;;;;;;2.10;1.03;;;;;;;;;;4934105;29;20467;-66
2023/08/10 04:01:50;;;;;;;3.27;1.40;;;;;;;;;;4934832;29;20483;-66
2023/08/10 04:04:18;;;;;;;2.20;1.10;;;;;;;;;;4931617;29;20485;-66
2023/08/10 04:06:45;;;;;;;2.93;1.90;;;;;;;;;;4932869;29;20470;-66
2023/08/10 04:09:12;;;;;;;2.40;1.70;;;;;;;;;;4934055;29;20493;-67
2023/08/10 04:11:39;;;;;;;2.53;1.57;;;;;;;;;;4935718;29;20463;-66
2023/08/10 04:14:06;;;;;;;2.43;1.70;;;;;;;;;;4933046;29;20467;-66
2023/08/10 04:16:34;;;;;;;2.57;1.40;;;;;;;;;;4933543;29;20878;-66
2023/08/10 04:19:04;;;;;;;2.63;1.30;;;;;;;;;;4933820;29;20452;-66
2023/08/10 04:21:31;;;;;;;2.93;1.20;;;;;;;;;;4935024;29;20471;-66
2023/08/10 04:23:58;;;;;;;3.63;1.70;;;;;;;;;;4935708;29;20503;-66
2023/08/10 04:26:26;;;;;;;3.13;1.47;;;;;;;;;;4932234;29;20464;-66
2023/08/10 04:28:53;;;;;;;2.70;1.50;;;;;;;;;;4935605;29;20472;-66
2023/08/10 04:31:20;;;;;;;2.70;1.30;;;;;;;;;;4933157;29;20522;-66
2023/08/10 04:33:47;;;;;;;2.93;1.67;;;;;;;;;;4935041;29;20443;-66
2023/08/10 04:36:16;;;;;;;3.00;1.40;;;;;;;;;;4932510;29;20482;-66
2023/08/10 04:38:43;;;;;;;2.63;1.40;;;;;;;;;;4930216;29;20467;-66
2023/08/10 04:41:10;;;;;;;2.33;1.50;;;;;;;;;;4930016;29;20460;-66
2023/08/10 04:43:37;;;;;;;4.70;1.60;;;;;;;;;;4932307;29;20479;-66
2023/08/10 04:46:04;;;;;;;3.57;1.60;;;;;;;;;;4934295;29;20471;-66
2023/08/10 04:48:31;;;;;;;3.33;1.53;;;;;;;;;;4933693;29;20954;-66
2023/08/10 04:50:58;;;;;;;2.87;1.53;;;;;;;;;;4933828;29;20466;-66
2023/08/10 04:53:26;;;;;;;2.30;1.37;;;;;;;;;;4935595;29;20428;-66
2023/08/10 04:55:53;;;;;;;3.53;1.60;;;;;;;;;;4932746;29;20468;-66
2023/08/10 04:58:21;;;;;;;2.57;1.57;;;;;;;;;;4932574;29;20452;-66
2023/08/10 05:00:48;;;;;;;3.10;1.97;;;;;;;;;;4934054;29;20496;-67
2023/08/10 05:03:15;;;;;;;2.00;1.20;;;;;;;;;;4934835;29;20480;-66
2023/08/10 05:05:42;;;;;;;2.53;1.23;;;;;;;;;;4932553;29;20460;-66
2023/08/10 05:08:09;;;;;;;2.97;1.60;;;;;;;;;;4931545;29;20464;-66
2023/08/10 05:10:38;;;;;;;2.20;1.13;;;;;;;;;;4932544;29;20832;-66
2023/08/10 05:13:05;;;;;;;2.90;1.23;;;;;;;;;;4933609;29;20459;-66
2023/08/10 05:15:32;;;;;;;2.70;1.73;;;;;;;;;;4932641;29;20467;-66
2023/08/10 05:17:59;;;;;;;3.00;1.43;;;;;;;;;;4932526;29;20554;-66
2023/08/10 05:20:27;;;;;;;2.30;1.40;;;;;;;;;;4933364;29;20460;-66
2023/08/10 05:22:54;;;;;;;3.03;1.67;;;;;;;;;;4933014;29;20542;-66
2023/08/10 05:25:23;;;;;;;2.30;1.40;;;;;;;;;;4931261;29;20494;-66
2023/08/10 05:27:52;;;;;;;2.20;1.60;;;;;;;;;;4931395;29;20483;-66
2023/08/10 05:30:19;;;;;;;3.03;1.70;;;;;;;;;;4933642;29;20898;-66
2023/08/10 05:32:46;;;;;;;3.57;2.23;;;;;;;;;;4934202;29;20471;-67
2023/08/10 05:35:14;;;;;;;2.00;1.13;;;;;;;;;;4931542;29;20467;-65
2023/08/10 05:37:41;;;;;;;2.73;1.50;;;;;;;;;;4934472;29;20522;-67
2023/08/10 05:40:11;;;;;;;2.73;1.30;;;;;;;;;;4938698;29;20523;-67
2023/08/10 05:42:38;;;;;;;4.13;1.40;;;;;;;;;;4940669;29;20463;-67
2023/08/10 05:45:08;;;;;;;2.10;1.30;;;;;;;;;;4939408;29;20463;-68
2023/08/10 05:47:36;;;;;;;2.67;1.67;;;;;;;;;;4935347;29;20521;-68
2023/08/10 05:50:03;;;;;;;2.97;1.60;;;;;;;;;;4933356;29;20450;-68
2023/08/10 05:52:30;;;;;;;2.80;1.80;;;;;;;;;;4933972;28;20507;-68
2023/08/10 05:55:00;;;;;;;2.83;1.50;;;;;;;;;;4930299;29;21005;-68
2023/08/10 05:57:27;;;;;;;2.37;1.60;;;;;;;;;;4933597;29;21001;-68
2023/08/10 05:59:55;;;;;;;2.63;1.57;;;;;;;;;;4930561;29;20966;-68
2023/08/10 06:02:24;;;;;;;2.70;1.83;;;;;;;;;;4928422;29;20872;-68
2023/08/10 06:04:52;;;;;;;3.27;1.73;;;;;;;;;;4933574;29;20845;-68
2023/08/10 06:07:19;;;;;;;3.17;2.03;;;;;;;;;;4932061;29;20894;-66
2023/08/10 06:09:46;;;;;;;2.60;1.70;;;;;;;;;;4930736;29;20503;-66
2023/08/10 06:12:16;;;;;;;2.80;1.50;;;;;;;;;;4933541;29;20514;-66
2023/08/10 06:14:43;;;;;;;2.37;1.73;;;;;;;;;;4930541;29;20481;-67
2023/08/10 06:17:11;;;;;;;2.70;1.40;;;;;;;;;;4933021;29;20898;-67
2023/08/10 06:19:39;;;;;;;2.63;1.40;;;;;;;;;;4932437;29;20847;-66
2023/08/10 06:22:07;;;;;;;3.30;1.90;;;;;;;;;;4933218;29;20483;-68
2023/08/10 06:24:35;;;;;;;3.33;2.20;;;;;;;;;;4933555;29;20491;-68
2023/08/10 06:27:02;;;;;;;3.10;1.60;;;;;;;;;;4932306;29;20503;-68
2023/08/10 06:29:29;;;;;;;4.07;2.00;;;;;;;;;;4931815;29;20460;-69
2023/08/10 06:31:56;;;;;;;12.40;2.70;;;;;;;;;;4934264;29;21036;-66
2023/08/10 06:34:23;;;;;;;2.67;1.63;;;;;;;;;;4937161;29;20490;-68
2023/08/10 06:36:53;;;;;;;3.40;1.47;;;;;;;;;;4935536;29;20511;-66
2023/08/10 06:39:21;;;;;;;3.20;2.00;;;;;;;;;;4935792;29;20447;-66
2023/08/10 06:41:48;;;;;;;3.83;1.97;;;;;;;;;;4934639;29;20570;-67
2023/08/10 06:44:16;;;;;;;3.53;1.70;;;;;;;;;;4935532;29;20479;-67
2023/08/10 06:46:43;;;;;;;4.37;2.27;;;;;;;;;;4935373;29;20487;-67
2023/08/10 06:49:10;;;;;;;3.50;2.13;;;;;;;;;;4935155;29;20454;-66
2023/08/10 06:51:38;;;;;;;3.57;2.40;;;;;;;;;;4934856;29;20486;-66
2023/08/10 06:54:07;;;;;;;4.90;1.97;;;;;;;;;;4935990;29;20923;-66
2023/08/10 06:56:34;;;;;;;4.30;2.00;;;;;;;;;;4936169;29;20554;-66
2023/08/10 06:59:02;;;;;;;3.10;1.87;;;;;;;;;;4934733;29;20468;-67
2023/08/10 07:01:29;;;;;;;2.97;2.00;;;;;;;;;;4933818;29;20560;-66
2023/08/10 07:03:56;;;;;;;3.10;2.10;;;;;;;;;;4936116;29;20538;-66
2023/08/10 07:06:23;;;;;;;3.27;2.20;;;;;;;;;;4934864;29;20488;-67
2023/08/10 07:08:52;;;;;;;3.50;2.30;;;;;;;;;;4935885;29;20428;-66
2023/08/10 07:11:21;;;;;;;4.63;2.57;;;;;;;;;;4935456;29;20487;-67
2023/08/10 07:13:48;;;;;;;3.43;2.00;;;;;;;;;;4936412;29;20461;-66
2023/08/10 07:16:15;;;;;;;2.57;1.43;;;;;;;;;;4936071;29;20514;-67
2023/08/10 07:18:43;;;;;;;3.40;2.10;;;;;;;;;;4934752;29;20805;-67
2023/08/10 07:21:10;;;;;;;4.07;2.33;;;;;;;;;;4930999;29;20959;-66
2023/08/10 07:23:37;;;;;;;2.70;1.63;;;;;;;;;;4932947;29;20503;-68
2023/08/10 07:26:04;;;;;;;3.20;2.07;;;;;;;;;;4935716;29;20953;-67
2023/08/10 07:28:33;;;;;;;4.70;2.93;;;;;;;;;;4935241;29;20440;-68
2023/08/10 07:31:00;;;;;;;4.07;2.27;;;;;;;;;;4930761;29;20464;-66
2023/08/10 07:33:28;;;;;;;4.60;2.20;;;;;;;;;;4933707;29;20479;-67
2023/08/10 07:35:55;;;;;;;3.37;2.10;;;;;;;;;;4934525;29;20878;-67
2023/08/10 07:38:23;;;;;;;3.40;2.20;;;;;;;;;;4936125;29;20432;-68
2023/08/10 07:40:50;;;;;;;6.93;2.30;;;;;;;;;;4928305;29;21026;-66
2023/08/10 07:43:17;;;;;;;4.47;1.97;;;;;;;;;;4931925;29;20475;-66
2023/08/10 07:45:46;;;;;;;3.07;1.80;;;;;;;;;;4931927;29;20503;-67
2023/08/10 07:48:13;;;;;;;3.27;1.73;;;;;;;;;;4936280;29;20448;-67
2023/08/10 07:50:40;;;;;;;3.87;2.13;;;;;;;;;;4934606;29;20468;-67
2023/08/10 07:53:07;;;;;;;2.90;1.90;;;;;;;;;;4933662;29;20471;-67
2023/08/10 07:55:34;;;;;;;3.20;2.03;;;;;;;;;;4936619;29;20442;-68
2023/08/10 07:58:01;;;;;;;3.50;1.60;;;;;;;;;;4933728;29;20443;-66
2023/08/10 08:00:31;;;;;;;6.03;2.10;;;;;;;;;;4934048;29;20448;-66
2023/08/10 08:03:00;;;;;;;2.27;1.43;;;;;;;;;;4931749;29;20480;-67
2023/08/10 08:08:00;;;;;;;3.03;2.00;;;;;;;;;;4974003;23;20535;-64
2023/08/10 08:10:27;;;;;;;3.27;1.60;;;;;;;;;;4934351;29;20436;-63
2023/08/10 08:12:54;;;;;;;4.40;2.63;;;;;;;;;;4933792;29;20699;-64
2023/08/10 08:15:22;;;;;;;3.77;1.90;;;;;;;;;;4936318;29;20440;-64
2023/08/10 08:18:07;;;;;;;3.20;2.30;;;;;;;;;;4935305;29;20451;-64
2023/08/10 08:20:36;;;;;;;2.60;1.60;;;;;;;;;;4934733;29;20462;-64
2023/08/10 08:23:03;;;;;;;3.00;1.77;;;;;;;;;;4941122;29;20467;-63
2023/08/10 08:25:30;;;;;;;3.30;1.80;;;;;;;;;;4948316;29;20993;-63
2023/08/10 08:27:57;;;;;;;3.80;2.10;;;;;;;;;;4947191;29;20523;-63
2023/08/10 08:30:26;;;;;;;2.63;1.50;;;;;;;;;;4948955;29;20474;-63
2023/08/10 08:32:53;;;;;;;5.27;2.07;;;;;;;;;;4945568;29;20498;-63
2023/08/10 08:35:20;;;;;;;5.60;2.13;;;;;;;;;;4947217;29;20436;-63
2023/08/10 08:37:48;;;;;;;3.13;2.10;;;;;;;;;;4945940;29;20456;-63
2023/08/10 08:40:15;;;;;;;3.60;2.10;;;;;;;;;;4945863;29;20440;-63
2023/08/10 08:42:44;;;;;;;3.23;1.77;;;;;;;;;;4945624;29;20468;-63
2023/08/10 08:45:11;;;;;;;3.40;1.80;;;;;;;;;;4946475;29;20475;-64
2023/08/10 08:47:39;;;;;;;2.80;1.83;;;;;;;;;;4942605;29;20949;-64
2023/08/10 08:50:07;;;;;;;8.90;1.80;;;;;;;;;;4934083;29;20599;-64
2023/08/10 08:52:34;;;;;;;2.70;1.77;;;;;;;;;;4935166;29;20490;-64
2023/08/10 08:55:04;;;;;;;3.47;2.43;;;;;;;;;;4934102;29;20448;-64
2023/08/10 08:57:31;;;;;;;2.70;2.10;;;;;;;;;;4935562;29;20452;-64
2023/08/10 08:59:58;;;;;;;2.73;1.80;;;;;;;;;;4932253;29;20467;-64
2023/08/10 09:02:25;;;;;;;4.23;2.20;;;;;;;;;;4933362;29;20459;-64
2023/08/10 09:04:54;;;;;;;3.40;1.80;;;;;;;;;;4935203;29;20867;-64
2023/08/10 09:07:22;;;;;;;3.60;2.00;;;;;;;;;;4932995;29;20467;-64
2023/08/10 09:09:49;;;;;;;2.90;1.77;;;;;;;;;;4934309;29;20471;-64
2023/08/10 09:12:30;;;;;;;2.13;1.50;;;;;;;;;;4935130;29;20467;-64
2023/08/10 09:15:02;;;;;;;2.77;1.57;;;;;;;;;;4932555;29;20449;-64
2023/08/10 09:17:29;;;;;;;2.80;1.67;;;;;;;;;;4932486;29;20519;-64
2023/08/10 09:19:56;;;;;;;2.77;1.63;;;;;;;;;;4934248;29;20443;-64
2023/08/10 09:22:31;;;;;;;2.30;1.50;;;;;;;;;;4930942;29;20479;-64
2023/08/10 09:24:58;;;;;;;2.53;1.40;;;;;;;;;;4933063;29;20566;-64
2023/08/10 09:27:27;;;;;;;2.70;1.60;;;;;;;;;;4931198;29;20464;-64
2023/08/10 09:29:58;;;;;;;2.77;1.30;;;;;;;;;;4934085;29;20444;-64
2023/08/10 09:32:25;;;;;;;3.73;1.43;;;;;;;;;;4932213;29;20460;-64
2023/08/10 09:34:52;;;;;;;3.00;1.80;;;;;;;;;;4934330;29;20523;-64
2023/08/10 09:37:20;;;;;;;3.37;2.47;;;;;;;;;;4933947;29;20459;-64
2023/08/10 09:39:47;;;;;;;3.33;1.60;;;;;;;;;;4935439;29;20559;-63
2023/08/10 09:42:14;;;;;;;3.00;2.10;;;;;;;;;;4937040;29;20476;-64
2023/08/10 09:44:45;;;;;;;2.77;1.60;;;;;;;;;;4937307;29;20480;-64
2023/08/10 09:47:14;;;;;;;2.77;1.80;;;;;;;;;;4934942;29;20459;-64
2023/08/10 09:49:46;;;;;;;3.70;2.10;;;;;;;;;;4933504;29;20448;-64
2023/08/10 09:52:14;;;;;;;2.03;1.30;;;;;;;;;;4932770;29;20483;-64
2023/08/10 09:54:41;;;;;;;2.20;1.40;;;;;;;;;;4933388;28;20448;-64
2023/08/10 09:57:08;;;;;;;3.87;1.93;;;;;;;;;;4932843;29;20468;-63
2023/08/10 09:59:35;;;;;;;2.57;1.77;;;;;;;;;;4933661;29;20436;-64
2023/08/10 10:02:03;;;;;;;2.80;1.67;;;;;;;;;;4933447;29;20527;-63
2023/08/10 10:04:33;;;;;;;2.00;1.20;;;;;;;;;;4935133;29;20611;-64
2023/08/10 10:07:01;;;;;;;3.37;1.60;;;;;;;;;;4934844;29;20486;-64
2023/08/10 10:09:30;;;;;;;2.43;1.47;;;;;;;;;;4936917;29;20435;-64
2023/08/10 10:12:00;;;;;;;3.30;1.70;;;;;;;;;;4937139;29;20463;-64
2023/08/10 10:14:28;;;;;;;3.00;1.60;;;;;;;;;;4935860;29;20446;-65
2023/08/10 10:16:55;;;;;;;2.40;1.50;;;;;;;;;;4937281;29;20468;-64
2023/08/10 10:19:22;;;;;;;3.50;1.67;;;;;;;;;;4937675;29;20539;-64
2023/08/10 10:21:52;;;;;;;3.90;1.97;;;;;;;;;;4936094;29;20472;-64
2023/08/10 10:24:19;;;;;;;2.87;1.20;;;;;;;;;;4936942;29;20476;-64
2023/08/10 10:26:58;;;;;;;2.60;1.53;;;;;;;;;;4937891;29;20442;-64
2023/08/10 10:29:36;;;;;;;2.70;1.73;;;;;;;;;;4935059;29;20456;-65
2023/08/10 10:32:07;;;;;;;2.30;1.27;;;;;;;;;;4935327;29;20546;-63
2023/08/10 10:34:35;;;;;;;2.47;1.50;;;;;;;;;;4936355;29;20440;-65
2023/08/10 10:37:10;;;;;;;2.60;1.57;;;;;;;;;;4935673;29;20472;-65
2023/08/10 10:39:37;;;;;;;3.00;2.20;;;;;;;;;;4935217;29;20498;-65
2023/08/10 10:42:05;;;;;;;2.40;1.37;;;;;;;;;;4937939;29;20452;-64
2023/08/10 10:44:51;;;;;;;2.70;1.70;;;;;;;;;;4940439;29;20485;-64
2023/08/10 10:47:18;;;;;;;2.00;1.20;;;;;;;;;;4940002;29;20506;-64
2023/08/10 10:49:54;;;;;;;3.60;2.13;;;;;;;;;;4937527;29;20840;-64
2023/08/10 10:55:14;;;;;;;3.80;1.50;;;;;;;;;;5119375;27;20559;-64
2023/08/10 10:57:42;;;;;;;6.30;1.90;;;;;;;;;;5115805;28;20440;-65
2023/08/10 11:00:10;;;;;;;3.37;1.77;;;;;;;;;;5120211;27;20987;-64
2023/08/10 11:02:37;;;;;;;3.20;1.57;;;;;;;;;;5107548;28;21037;-64
2023/08/10 11:05:06;;;;;;;3.30;1.90;;;;;;;;;;5100243;28;20812;-64
2023/08/10 11:07:34;;;;;;;3.10;2.20;;;;;;;;;;5100261;28;20452;-64
2023/08/10 11:10:06;;;;;;;3.40;1.63;;;;;;;;;;5097904;28;20440;-64
2023/08/10 11:12:34;;;;;;;2.47;1.27;;;;;;;;;;5102269;28;20463;-64
2023/08/10 11:15:01;;;;;;;3.10;1.67;;;;;;;;;;5101133;28;20468;-64
2023/08/10 11:17:29;;;;;;;2.57;1.60;;;;;;;;;;5097816;28;20458;-64
2023/08/10 11:19:56;;;;;;;3.90;2.00;;;;;;;;;;5100816;28;20480;-64
2023/08/10 11:22:23;;;;;;;2.63;1.50;;;;;;;;;;5095652;28;20451;-63
2023/08/10 11:24:50;;;;;;;3.03;1.70;;;;;;;;;;5098931;28;20419;-64
2023/08/10 11:27:17;;;;;;;3.67;2.20;;;;;;;;;;5100682;28;20432;-63
2023/08/10 11:29:46;;;;;;;3.10;1.67;;;;;;;;;;5101985;28;20437;-64
2023/08/10 11:32:13;;;;;;;2.00;1.50;;;;;;;;;;5097159;28;20451;-64
2023/08/10 11:34:40;;;;;;;3.03;1.70;;;;;;;;;;5102598;28;20533;-65
2023/08/10 11:37:07;;;;;;;4.30;2.30;;;;;;;;;;5095685;28;20515;-64
2023/08/10 11:39:35;;;;;;;2.37;1.70;;;;;;;;;;5098702;28;20449;-65
2023/08/10 11:42:02;;;;;;;3.40;1.60;;;;;;;;;;5096998;28;20467;-64
2023/08/10 11:44:30;;;;;;;9.50;2.50;;;;;;;;;;5095541;28;20498;-64
2023/08/10 11:46:59;;;;;;;3.40;1.63;;;;;;;;;;5097140;28;20455;-64
2023/08/10 11:49:27;;;;;;;3.03;1.80;;;;;;;;;;5099585;28;20459;-65
2023/08/10 11:51:56;;;;;;;4.43;1.83;;;;;;;;;;5100277;28;20506;-65
2023/08/10 11:54:28;;;;;;;2.30;1.77;;;;;;;;;;5100498;28;20503;-65
2023/08/10 11:56:55;;;;;;;2.60;1.73;;;;;;;;;;5097153;28;20531;-64
2023/08/10 11:59:23;;;;;;;3.60;1.90;;;;;;;;;;5101918;28;20460;-64
2023/08/10 12:01:53;;;;;;;2.80;2.00;;;;;;;;;;5101336;28;20462;-64
2023/08/10 12:04:21;;;;;;;2.80;2.40;;;;;;;;;;5098986;28;20786;-65
2023/08/10 12:06:49;;;;;;;2.73;1.50;;;;;;;;;;5085048;28;20433;-65
2023/08/10 12:09:16;;;;;;;3.13;1.93;;;;;;;;;;5087537;28;20457;-65
2023/08/10 12:11:47;;;;;;;3.50;1.63;;;;;;;;;;5088164;28;20476;-64
2023/08/10 12:14:15;;;;;;;2.37;1.73;;;;;;;;;;5086056;28;20467;-64
2023/08/10 12:16:42;;;;;;;4.87;2.00;;;;;;;;;;5083950;28;20805;-66
2023/08/10 12:19:09;;;;;;;2.53;1.50;;;;;;;;;;5081600;28;20496;-64
2023/08/10 12:21:37;;;;;;;2.90;2.00;;;;;;;;;;5084460;28;20468;-64
2023/08/10 12:24:04;;;;;;;4.00;1.70;;;;;;;;;;5085728;28;20469;-65
2023/08/10 12:26:31;;;;;;;2.87;1.90;;;;;;;;;;5083162;28;20943;-65
2023/08/10 12:28:59;;;;;;;3.00;2.30;;;;;;;;;;5086940;28;20464;-64
2023/08/10 12:31:26;;;;;;;2.33;1.60;;;;;;;;;;5083204;28;21012;-64
2023/08/10 12:33:55;;;;;;;5.13;1.60;;;;;;;;;;5082174;28;20498;-64
2023/08/10 12:36:22;;;;;;;3.10;1.80;;;;;;;;;;5086684;28;20876;-64
2023/08/10 12:38:51;;;;;;;3.40;1.70;;;;;;;;;;5088316;28;20534;-64
2023/08/10 12:41:18;;;;;;;3.17;1.53;;;;;;;;;;5085995;28;20944;-64
2023/08/10 12:43:45;;;;;;;3.33;2.20;;;;;;;;;;5084681;28;20443;-64
2023/08/10 12:46:12;;;;;;;3.03;1.70;;;;;;;;;;5082125;28;20453;-65
2023/08/10 12:48:39;;;;;;;2.13;1.60;;;;;;;;;;5084119;28;20453;-65
2023/08/10 12:51:08;;;;;;;3.47;2.03;;;;;;;;;;5086019;28;20543;-65
2023/08/10 12:53:35;;;;;;;2.93;2.07;;;;;;;;;;5084885;28;20957;-64
2023/08/10 12:56:04;;;;;;;2.43;1.63;;;;;;;;;;5082494;28;20439;-65
2023/08/10 12:58:31;;;;;;;2.90;1.67;;;;;;;;;;5084485;28;20459;-64
2023/08/10 13:00:58;;;;;;;3.20;1.90;;;;;;;;;;5087062;28;20446;-64
2023/08/10 13:03:25;;;;;;;2.90;1.90;;;;;;;;;;5081958;28;20468;-65
2023/08/10 13:05:52;;;;;;;2.97;1.80;;;;;;;;;;5084366;28;20486;-64
2023/08/10 13:08:19;;;;;;;2.67;1.80;;;;;;;;;;5084900;28;20467;-64
2023/08/10 13:10:46;;;;;;;3.57;1.70;;;;;;;;;;5080332;28;20906;-63
2023/08/10 13:13:15;;;;;;;3.97;1.50;;;;;;;;;;5081890;28;20452;-64
2023/08/10 13:15:42;;;;;;;3.30;2.30;;;;;;;;;;5081203;28;20477;-63
2023/08/10 13:18:09;;;;;;;2.53;1.70;;;;;;;;;;5083458;28;20513;-64
2023/08/10 13:20:36;;;;;;;3.17;1.50;;;;;;;;;;5090042;28;20450;-64
2023/08/10 13:23:04;;;;;;;3.37;2.20;;;;;;;;;;5081007;28;20456;-64
2023/08/10 13:25:31;;;;;;;4.40;2.23;;;;;;;;;;5082504;28;20453;-64
2023/08/10 13:27:58;;;;;;;2.27;1.53;;;;;;;;;;5080055;28;20448;-64
2023/08/10 13:30:27;;;;;;;3.30;1.50;;;;;;;;;;5085644;28;20828;-64
2023/08/10 13:32:54;;;;;;;2.33;1.40;;;;;;;;;;5086405;28;20977;-64
2023/08/10 13:35:21;;;;;;;3.53;1.57;;;;;;;;;;5082643;28;20566;-64
2023/08/10 13:37:48;;;;;;;3.00;1.57;;;;;;;;;;5082570;28;20437;-64
2023/08/10 13:40:16;;;;;;;2.33;1.47;;;;;;;;;;5084747;28;20460;-64
2023/08/10 13:42:43;;;;;;;2.60;1.80;;;;;;;;;;5084717;28;20461;-65
2023/08/10 13:45:10;;;;;;;2.40;1.37;;;;;;;;;;5083280;28;20442;-64
2023/08/10 13:47:39;;;;;;;3.90;1.60;;;;;;;;;;5079595;28;20592;-64
2023/08/10 13:50:07;;;;;;;2.60;1.57;;;;;;;;;;5085629;28;21015;-64
2023/08/10 13:52:34;;;;;;;2.70;1.57;;;;;;;;;;5080788;28;21038;-64
2023/08/10 13:55:03;;;;;;;2.90;1.70;;;;;;;;;;5082140;28;20476;-63
2023/08/10 13:57:30;;;;;;;2.43;1.57;;;;;;;;;;5080797;28;20434;-64
2023/08/10 13:59:57;;;;;;;3.70;2.20;;;;;;;;;;5081397;28;20447;-64
2023/08/10 14:02:24;;;;;;;2.33;1.50;;;;;;;;;;5084397;28;20455;-64
2023/08/10 14:04:53;;;;;;;3.83;1.97;;;;;;;;;;5079120;28;20438;-65
2023/08/10 14:07:22;;;;;;;3.40;1.83;;;;;;;;;;5083765;28;20951;-64
2023/08/10 14:09:49;;;;;;;2.43;1.70;;;;;;;;;;5087648;28;20448;-64
2023/08/10 14:12:16;;;;;;;2.70;1.73;;;;;;;;;;5081831;28;20879;-64
2023/08/10 14:14:43;;;;;;;2.27;1.87;;;;;;;;;;5079272;28;20833;-65
2023/08/10 14:17:10;;;;;;;2.93;1.50;;;;;;;;;;5079788;28;20436;-64
2023/08/10 14:19:38;;;;;;;5.20;1.47;;;;;;;;;;5087541;28;20456;-64
2023/08/10 14:22:06;;;;;;;2.87;1.97;;;;;;;;;;5085362;28;20484;-64
2023/08/10 14:24:33;;;;;;;2.30;1.70;;;;;;;;;;5088080;28;20501;-64
2023/08/10 14:27:00;;;;;;;2.77;1.80;;;;;;;;;;5092646;28;20467;-64
2023/08/10 14:29:28;;;;;;;2.23;1.53;;;;;;;;;;5087705;28;20448;-64
2023/08/10 14:31:55;;;;;;;1.90;1.30;;;;;;;;;;5086475;28;20452;-64
2023/08/10 14:34:22;;;;;;;2.73;1.63;;;;;;;;;;5086996;28;20476;-64
2023/08/10 14:36:49;;;;;;;3.67;1.53;;;;;;;;;;5080294;28;20432;-64
2023/08/10 14:39:18;;;;;;;4.18;2.40;;;;;;;;;;5080153;28;20675;-64
2023/08/10 14:41:49;;;;;;;2.80;1.80;;;;;;;;;;5081884;28;20222;-64
2023/08/10 14:44:16;;;;;;;2.10;1.67;;;;;;;;;;5083327;28;20193;-65
2023/08/10 14:46:43;;;;;;;3.63;1.48;;;;;;;;;;5083127;28;20700;-65
2023/08/10 14:49:10;;;;;;;2.25;1.42;;;;;;;;;;5080336;28;20285;-64
2023/08/10 14:51:37;;;;;;;2.92;1.50;;;;;;;;;;5082829;28;20221;-64
2023/08/10 14:54:05;;;;;;;3.75;1.80;;;;;;;;;;5079954;28;20218;-64
2023/08/10 14:56:33;;;;;;;2.90;1.70;;;;;;;;;;5082158;28;20244;-64